createdAt,value
2023-01-07T00:01:19.971Z,98183.84
2023-01-07T00:03:48.968Z,98183.00
2023-01-07T00:06:21.673Z,98185.63
2023-01-07T00:08:51.288Z,98181.78
2023-01-07T00:11:24.180Z,98179.38
2023-01-07T00:13:53.525Z,98182.84
2023-01-07T00:16:23.288Z,98185.47
2023-01-07T00:18:52.618Z,98182.03
2023-01-07T00:21:21.907Z,98181.84
2023-01-07T00:23:53.337Z,98182.03
2023-01-07T00:26:22.585Z,98182.84
2023-01-07T00:28:51.690Z,98180.03
2023-01-07T00:31:24.658Z,98186.53
2023-01-07T00:33:59.437Z,98180.19
2023-01-07T00:36:29.503Z,98185.06
2023-01-07T00:39:03.932Z,98180.97
2023-01-07T00:41:31.828Z,98180.16
2023-01-07T00:43:59.625Z,98177.69
2023-01-07T00:46:28.065Z,98173.22
2023-01-07T00:48:55.771Z,98176.09
2023-01-07T00:51:23.443Z,98168.75
2023-01-07T00:53:50.915Z,98154.47
2023-01-07T00:56:19.261Z,98160.44
2023-01-07T00:58:47.091Z,98166.16
2023-01-07T01:01:15.925Z,98156.78
2023-01-07T01:03:43.671Z,98157.41
2023-01-07T01:06:16.065Z,98154.75
2023-01-07T01:08:45.532Z,98153.75
2023-01-07T01:11:15.169Z,98155.59
2023-01-07T01:13:44.184Z,98161.72
2023-01-07T01:16:14.902Z,98162.31
2023-01-07T01:18:43.345Z,98160.69
2023-01-07T01:21:15.345Z,98157.22
2023-01-07T01:23:43.824Z,98157.84
2023-01-07T01:26:14.731Z,98166.44
2023-01-07T01:28:43.721Z,98168.47
2023-01-07T01:31:13.061Z,98165.41
2023-01-07T01:33:55.989Z,98166.00
2023-01-07T01:36:24.951Z,98166.44
2023-01-07T01:38:55.078Z,98161.53
2023-01-07T01:41:22.703Z,98157.84
2023-01-07T01:43:53.299Z,98157.06
2023-01-07T01:46:39.988Z,98156.66
2023-01-07T01:49:27.957Z,98154.00
2023-01-07T01:52:11.838Z,98147.25
2023-01-07T01:54:44.249Z,98150.09
2023-01-07T01:57:12.005Z,98150.09
2023-01-07T01:59:44.528Z,98157.06
2023-01-07T02:02:16.537Z,98156.41
2023-01-07T02:04:44.394Z,98141.31
2023-01-07T02:07:17.580Z,98146.44
2023-01-07T02:10:05.971Z,98144.19
2023-01-07T02:12:39.641Z,98139.47
2023-01-07T02:15:15.262Z,98144.78
2023-01-07T02:18:11.221Z,98144.16
2023-01-07T02:21:03.330Z,98151.69
2023-01-07T02:24:01.789Z,98143.97
2023-01-07T02:27:11.259Z,98141.53
2023-01-07T02:29:45.493Z,98135.81
2023-01-07T02:32:52.816Z,98128.84
2023-01-07T02:35:41.308Z,98125.38
2023-01-07T02:38:11.882Z,98125.38
2023-01-07T02:41:23.008Z,98120.91
2023-01-07T02:44:04.119Z,98113.16
2023-01-07T02:46:47.578Z,98120.66
2023-01-07T02:49:17.345Z,98109.66
2023-01-07T02:51:47.286Z,98101.91
2023-01-07T02:54:23.470Z,98100.88
2023-01-07T02:57:02.166Z,98094.94
2023-01-07T02:59:38.476Z,98100.06
2023-01-07T03:02:11.813Z,98093.72
2023-01-07T03:05:10.062Z,98099.78
2023-01-07T03:08:01.032Z,98096.91
2023-01-07T03:10:50.032Z,98101.16
2023-01-07T03:13:23.937Z,98095.44
2023-01-07T03:15:53.368Z,98103.59
2023-01-07T03:18:27.072Z,98096.00
2023-01-07T03:21:06.147Z,98098.03
2023-01-07T03:23:39.139Z,98099.06
2023-01-07T03:26:09.052Z,98088.66
2023-01-07T03:28:41.703Z,98090.66
2023-01-07T03:31:13.990Z,98100.44
2023-01-07T03:33:57.176Z,98099.41
2023-01-07T03:36:30.481Z,98107.13
2023-01-07T03:38:59.999Z,98104.88
2023-01-07T03:41:46.821Z,98099.53
2023-01-07T03:44:15.177Z,98104.81
2023-01-07T03:46:44.109Z,98099.91
2023-01-07T03:49:11.961Z,98107.22
2023-01-07T03:51:39.756Z,98109.84
2023-01-07T03:54:08.641Z,98111.84
2023-01-07T03:56:36.597Z,98107.31
2023-01-07T03:59:04.323Z,98094.28
2023-01-07T04:01:32.072Z,98099.59
2023-01-07T04:04:02.338Z,98110.34
2023-01-07T04:06:31.084Z,98097.69
2023-01-07T04:08:59.198Z,98103.41
2023-01-07T04:11:27.122Z,98096.72
2023-01-07T04:13:55.209Z,98089.25
2023-01-07T04:16:22.978Z,98092.69
2023-01-07T04:18:50.493Z,98093.75
2023-01-07T04:21:18.301Z,98098.66
2023-01-07T04:23:45.753Z,98099.50
2023-01-07T04:26:13.500Z,98099.69
2023-01-07T04:28:43.256Z,98098.06
2023-01-07T04:31:10.933Z,98096.63
2023-01-07T04:33:38.858Z,98095.16
2023-01-07T04:36:06.990Z,98092.31
2023-01-07T04:38:34.528Z,98091.69
2023-01-07T04:41:02.188Z,98085.16
2023-01-07T04:43:29.608Z,98080.84
2023-01-07T04:45:57.194Z,98085.88
2023-01-07T04:48:24.932Z,98080.59
2023-01-07T04:50:54.793Z,98080.53
2023-01-07T04:53:23.141Z,98079.53
2023-01-07T04:55:50.959Z,98071.97
2023-01-07T04:58:19.071Z,98078.91
2023-01-07T05:00:49.078Z,98073.84
2023-01-07T05:03:17.495Z,98071.38
2023-01-07T05:05:45.812Z,98068.31
2023-01-07T05:08:13.558Z,98070.28
2023-01-07T05:10:41.132Z,98072.50
2023-01-07T05:13:15.063Z,98066.78
2023-01-07T05:15:46.179Z,98067.59
2023-01-07T05:18:15.118Z,98074.72
2023-01-07T05:20:43.688Z,98070.25
2023-01-07T05:23:11.584Z,98070.25
2023-01-07T05:25:40.682Z,98064.53
2023-01-07T05:28:08.169Z,98069.13
2023-01-07T05:30:39.644Z,98069.34
2023-01-07T05:33:07.660Z,98064.06
2023-01-07T05:39:48.577Z,98067.94
2023-01-07T05:42:19.556Z,98068.25
2023-01-07T05:44:47.224Z,98069.91
2023-01-07T05:47:14.641Z,98072.59
2023-01-07T05:49:42.179Z,98076.94
2023-01-07T05:52:09.620Z,98077.63
2023-01-07T05:54:37.198Z,98071.53
2023-01-07T05:57:04.670Z,98077.00
2023-01-07T05:59:34.910Z,98077.59
2023-01-07T06:02:02.811Z,98091.06
2023-01-07T06:04:30.614Z,98088.38
2023-01-07T06:06:58.217Z,98090.84
2023-01-07T06:09:25.686Z,98090.34
2023-01-07T06:11:53.441Z,98085.50
2023-01-07T06:14:20.868Z,98094.44
2023-01-07T06:16:48.489Z,98080.19
2023-01-07T06:19:15.951Z,98080.66
2023-01-07T06:21:43.464Z,98070.69
2023-01-07T06:24:11.404Z,98067.66
2023-01-07T06:26:38.963Z,98075.41
2023-01-07T06:29:06.460Z,98072.38
2023-01-07T06:31:34.114Z,98072.75
2023-01-07T06:34:01.683Z,98068.28
2023-01-07T06:36:29.217Z,98069.13
2023-01-07T06:38:56.687Z,98065.88
2023-01-07T06:41:24.232Z,98058.94
2023-01-07T06:43:51.711Z,98062.59
2023-01-07T06:46:19.437Z,98063.81
2023-01-07T06:48:48.072Z,98064.19
2023-01-07T06:51:15.846Z,98066.03
2023-01-07T06:53:43.311Z,98068.03
2023-01-07T06:56:10.821Z,98057.84
2023-01-07T06:58:38.383Z,98064.56
2023-01-07T07:01:07.543Z,98057.44
2023-01-07T07:03:35.181Z,98059.53
2023-01-07T07:06:02.833Z,98056.50
2023-01-07T07:08:30.356Z,98052.00
2023-01-07T07:10:57.923Z,98057.94
2023-01-07T07:13:25.500Z,98059.75
2023-01-07T07:15:53.083Z,98051.19
2023-01-07T07:18:20.733Z,98060.13
2023-01-07T07:20:49.029Z,98057.97
2023-01-07T07:23:16.573Z,98051.16
2023-01-07T07:25:44.150Z,98057.00
2023-01-07T07:28:11.660Z,98058.91
2023-01-07T07:30:51.109Z,98064.28
2023-01-07T07:33:19.668Z,98064.50
2023-01-07T07:35:48.011Z,98061.84
2023-01-07T07:38:17.991Z,98057.72
2023-01-07T07:40:46.769Z,98068.53
2023-01-07T07:43:15.437Z,98062.81
2023-01-07T07:45:43.454Z,98065.84
2023-01-07T07:48:13.436Z,98064.44
2023-01-07T07:50:41.318Z,98064.22
2023-01-07T07:53:10.525Z,98063.41
2023-01-07T07:55:39.591Z,98063.78
2023-01-07T07:58:07.367Z,98063.78
2023-01-07T08:00:34.998Z,98059.53
2023-01-07T08:03:02.697Z,98060.16
2023-01-07T08:05:30.927Z,98063.84
2023-01-07T08:07:58.795Z,98060.59
2023-01-07T08:10:28.119Z,98061.22
2023-01-07T08:12:55.618Z,98057.56
2023-01-07T08:15:23.159Z,98053.88
2023-01-07T08:17:58.330Z,98056.94
2023-01-07T08:20:25.929Z,98062.47
2023-01-07T08:22:53.720Z,98056.19
2023-01-07T08:25:21.224Z,98052.91
2023-01-07T08:27:48.662Z,98052.50
2023-01-07T08:30:17.187Z,98053.31
2023-01-07T08:32:44.687Z,98051.53
2023-01-07T08:35:12.217Z,98053.38
2023-01-07T08:37:39.708Z,98049.50
2023-01-07T08:40:07.667Z,98048.03
2023-01-07T08:42:35.199Z,98050.69
2023-01-07T08:45:02.992Z,98055.59
2023-01-07T08:47:30.938Z,98059.06
2023-01-07T08:49:58.519Z,98064.34
2023-01-07T08:52:26.468Z,98063.94
2023-01-07T08:54:53.999Z,98059.22
2023-01-07T08:57:21.453Z,98056.16
2023-01-07T08:59:49.059Z,98059.44
2023-01-07T09:02:20.973Z,98057.63
2023-01-07T09:04:48.705Z,98049.69
2023-01-07T09:07:16.164Z,98050.09
2023-01-07T09:09:43.775Z,98057.03
2023-01-07T09:12:11.378Z,98054.38
2023-01-07T09:14:38.969Z,98051.50
2023-01-07T09:17:06.459Z,98055.78
2023-01-07T09:19:33.994Z,98061.50
2023-01-07T09:22:01.522Z,98062.25
2023-01-07T09:24:29.009Z,98050.97
2023-01-07T09:26:56.510Z,98040.94
2023-01-07T09:29:24.088Z,98042.91
2023-01-07T09:31:51.623Z,98029.34
2023-01-07T09:34:19.342Z,98034.25
2023-01-07T09:36:46.765Z,98030.47
2023-01-07T09:39:14.526Z,98024.09
2023-01-07T09:42:09.253Z,98023.84
2023-01-07T09:45:10.462Z,98019.66
2023-01-07T09:47:42.392Z,98011.09
2023-01-07T09:50:32.754Z,98012.81
2023-01-07T09:53:06.255Z,98013.34
2023-01-07T09:55:38.899Z,98007.44
2023-01-07T09:58:29.593Z,98004.28
2023-01-07T10:01:05.781Z,97994.59
2023-01-07T10:03:43.881Z,98001.91
2023-01-07T10:06:43.589Z,97993.34
2023-01-07T10:09:23.744Z,97988.97
2023-01-07T10:12:00.571Z,97988.25
2023-01-07T10:15:05.407Z,97987.41
2023-01-07T10:18:02.310Z,97983.72
2023-01-07T10:20:38.819Z,97988.38
2023-01-07T10:23:32.089Z,97981.50
2023-01-07T10:26:02.508Z,97969.28
2023-01-07T10:28:45.430Z,97969.19
2023-01-07T10:31:22.697Z,97976.22
2023-01-07T10:33:52.334Z,97964.31
2023-01-07T10:36:38.527Z,97961.75
2023-01-07T10:39:41.339Z,97953.13
2023-01-07T10:42:27.494Z,97954.53
2023-01-07T10:44:57.904Z,97956.41
2023-01-07T10:47:50.681Z,97952.75
2023-01-07T10:50:52.341Z,97944.47
2023-01-07T10:53:19.883Z,97947.31
2023-01-07T10:56:26.487Z,97944.66
2023-01-07T10:58:54.033Z,97936.75
2023-01-07T11:01:30.091Z,97937.59
2023-01-07T11:04:00.085Z,97926.41
2023-01-07T11:06:55.807Z,97925.72
2023-01-07T11:09:41.415Z,97918.97
2023-01-07T11:13:06.389Z,97915.50
2023-01-07T11:15:40.005Z,97913.22
2023-01-07T11:18:16.577Z,97902.03
2023-01-07T11:20:53.219Z,97895.34
2023-01-07T11:23:30.257Z,97890.91
2023-01-07T11:26:25.011Z,97883.97
2023-01-07T11:28:58.067Z,97879.25
2023-01-07T11:31:52.409Z,97875.41
2023-01-07T11:34:26.819Z,97871.41
2023-01-07T11:36:54.973Z,97870.56
2023-01-07T11:39:26.162Z,97864.25
2023-01-07T11:41:59.402Z,97867.63
2023-01-07T11:44:27.591Z,97864.44
2023-01-07T11:46:55.560Z,97864.13
2023-01-07T11:49:29.496Z,97856.28
2023-01-07T11:51:57.132Z,97851.41
2023-01-07T11:54:29.585Z,97845.41
2023-01-07T11:57:21.032Z,97848.50
2023-01-07T11:59:48.694Z,97849.75
2023-01-07T12:02:25.691Z,97841.50
2023-01-07T12:05:17.010Z,97836.25
2023-01-07T12:07:51.589Z,97840.19
2023-01-07T12:10:29.271Z,97835.41
2023-01-07T12:12:58.782Z,97834.25
2023-01-07T12:15:30.594Z,97836.91
2023-01-07T12:18:07.342Z,97823.25
2023-01-07T12:20:56.741Z,97828.38
2023-01-07T12:24:01.692Z,97831.13
2023-01-07T12:26:55.378Z,97822.50
2023-01-07T12:29:51.693Z,97812.91
2023-01-07T12:32:40.219Z,97815.09
2023-01-07T12:35:33.966Z,97805.78
2023-01-07T12:38:23.145Z,97803.13
2023-01-07T12:41:00.568Z,97801.38
2023-01-07T12:43:40.156Z,97800.00
2023-01-07T12:46:12.319Z,97794.22
2023-01-07T12:48:58.342Z,97787.47
2023-01-07T12:51:34.192Z,97783.72
2023-01-07T12:54:24.717Z,97791.44
2023-01-07T12:56:58.721Z,97795.81
2023-01-07T12:59:46.693Z,97789.63
2023-01-07T13:02:35.390Z,97786.50
2023-01-07T13:05:21.772Z,97782.28
2023-01-07T13:07:58.461Z,97781.94
2023-01-07T13:10:35.810Z,97784.22
2023-01-07T13:13:12.909Z,97792.44
2023-01-07T13:15:41.826Z,97785.28
2023-01-07T13:18:12.388Z,97776.16
2023-01-07T13:20:52.142Z,97787.03
2023-01-07T13:23:25.816Z,97786.44
2023-01-07T13:26:06.700Z,97788.38
2023-01-07T13:29:01.758Z,97782.31
2023-01-07T13:32:06.710Z,97784.03
2023-01-07T13:35:00.422Z,97782.09
2023-01-07T13:37:52.837Z,97784.47
2023-01-07T13:40:49.481Z,97776.41
2023-01-07T13:43:53.988Z,97775.97
2023-01-07T13:46:35.386Z,97767.66
2023-01-07T13:49:03.579Z,97768.34
2023-01-07T13:51:38.000Z,97765.75
2023-01-07T13:54:05.663Z,97764.94
2023-01-07T13:56:36.018Z,97762.50
2023-01-07T13:59:04.058Z,97764.00
2023-01-07T14:02:29.820Z,97766.25
2023-01-07T14:05:15.034Z,97759.75
2023-01-07T14:07:54.029Z,97754.56
2023-01-07T14:10:34.979Z,97750.22
2023-01-07T14:13:05.474Z,97742.19
2023-01-07T14:15:57.677Z,97745.69
2023-01-07T14:18:33.780Z,97739.84
2023-01-07T14:21:40.137Z,97743.22
2023-01-07T14:24:29.229Z,97746.50
2023-01-07T14:27:07.652Z,97740.00
2023-01-07T14:29:47.094Z,97737.16
2023-01-07T14:32:37.597Z,97742.53
2023-01-07T14:35:19.282Z,97733.63
2023-01-07T14:37:47.280Z,97724.59
2023-01-07T14:40:35.212Z,97721.28
2023-01-07T14:43:04.085Z,97718.50
2023-01-07T14:45:37.783Z,97707.53
2023-01-07T14:48:08.107Z,97714.78
2023-01-07T14:50:55.544Z,97706.91
2023-01-07T14:53:43.211Z,97700.88
2023-01-07T14:56:38.442Z,97705.31
2023-01-07T14:59:08.627Z,97699.66
2023-01-07T15:01:51.502Z,97702.56
2023-01-07T15:04:32.669Z,97697.66
2023-01-07T15:07:02.327Z,97692.38
2023-01-07T15:10:05.090Z,97687.91
2023-01-07T15:13:14.479Z,97690.34
2023-01-07T15:16:01.896Z,97686.28
2023-01-07T15:18:31.570Z,97692.41
2023-01-07T15:21:19.289Z,97678.91
2023-01-07T15:23:56.174Z,97685.84
2023-01-07T15:26:29.696Z,97681.81
2023-01-07T15:29:15.407Z,97680.56
2023-01-07T15:31:51.868Z,97687.72
2023-01-07T15:34:21.088Z,97680.38
2023-01-07T15:36:51.561Z,97682.66
2023-01-07T15:39:22.103Z,97679.81
2023-01-07T15:41:54.725Z,97681.03
2023-01-07T15:44:26.778Z,97676.97
2023-01-07T15:46:55.477Z,97679.63
2023-01-07T15:49:28.141Z,97672.88
2023-01-07T15:51:58.565Z,97675.34
2023-01-07T15:54:37.684Z,97677.53
2023-01-07T15:57:16.663Z,97682.00
2023-01-07T15:59:48.008Z,97674.53
2023-01-07T16:02:28.013Z,97675.97
2023-01-07T16:04:59.171Z,97675.94
2023-01-07T16:07:29.731Z,97678.78
2023-01-07T16:09:58.716Z,97671.84
2023-01-07T16:12:35.877Z,97665.19
2023-01-07T16:15:23.310Z,97668.03
2023-01-07T16:18:14.880Z,97659.06
2023-01-07T16:20:49.418Z,97648.69
2023-01-07T16:23:31.466Z,97650.91
2023-01-07T16:26:03.633Z,97654.16
2023-01-07T16:28:39.890Z,97652.34
2023-01-07T16:31:13.707Z,97643.97
2023-01-07T16:33:42.471Z,97636.69
2023-01-07T16:36:31.340Z,97644.59
2023-01-07T16:39:04.538Z,97632.97
2023-01-07T16:41:32.585Z,97630.91
2023-01-07T16:44:00.632Z,97634.97
2023-01-07T16:46:39.016Z,97622.56
2023-01-07T16:49:09.683Z,97616.22
2023-01-07T16:52:14.279Z,97612.38
2023-01-07T16:54:46.350Z,97604.22
2023-01-07T16:57:14.547Z,97599.56
2023-01-07T16:59:55.529Z,97600.75
2023-01-07T17:03:00.833Z,97596.88
2023-01-07T17:05:31.230Z,97596.69
2023-01-07T17:08:05.827Z,97597.25
2023-01-07T17:10:40.767Z,97598.91
2023-01-07T17:13:35.615Z,97589.72
2023-01-07T17:16:23.327Z,97584.38
2023-01-07T17:18:51.838Z,97582.13
2023-01-07T17:21:41.574Z,97588.09
2023-01-07T17:24:23.532Z,97579.13
2023-01-07T17:26:51.680Z,97579.59
2023-01-07T17:29:19.960Z,97582.25
2023-01-07T17:31:47.772Z,97580.03
2023-01-07T17:34:16.181Z,97578.00
2023-01-07T17:36:44.055Z,97574.97
2023-01-07T17:39:12.000Z,97580.06
2023-01-07T17:41:57.941Z,97587.34
2023-01-07T17:44:25.828Z,97586.34
2023-01-07T17:46:53.323Z,97580.66
2023-01-07T17:49:20.980Z,97575.75
2023-01-07T17:51:49.519Z,97571.06
2023-01-07T17:54:25.674Z,97555.47
2023-01-07T17:56:53.283Z,97562.81
2023-01-07T17:59:23.465Z,97561.63
2023-01-07T18:01:53.352Z,97560.63
2023-01-07T18:04:21.655Z,97559.03
2023-01-07T18:06:49.244Z,97556.00
2023-01-07T18:09:16.831Z,97558.03
2023-01-07T18:12:05.191Z,97567.50
2023-01-07T18:14:33.320Z,97567.16
2023-01-07T18:17:00.945Z,97561.00
2023-01-07T18:19:28.517Z,97564.50
2023-01-07T18:21:56.238Z,97564.31
2023-01-07T18:24:24.170Z,97561.69
2023-01-07T18:26:51.570Z,97552.75
2023-01-07T18:29:19.355Z,97549.88
2023-01-07T18:31:46.909Z,97544.94
2023-01-07T18:34:15.334Z,97554.44
2023-01-07T18:36:42.990Z,97549.34
2023-01-07T18:39:19.220Z,97545.06
2023-01-07T18:41:50.898Z,97545.72
2023-01-07T18:44:19.441Z,97549.56
2023-01-07T18:46:47.576Z,97540.31
2023-01-07T18:49:15.213Z,97533.19
2023-01-07T18:51:43.183Z,97534.19
2023-01-07T18:54:10.788Z,97531.34
2023-01-07T18:56:38.396Z,97530.53
2023-01-07T18:59:06.079Z,97535.63
2023-01-07T19:01:33.787Z,97534.81
2023-01-07T19:04:01.503Z,97522.97
2023-01-07T19:06:29.080Z,97515.00
2023-01-07T19:08:57.027Z,97516.66
2023-01-07T19:11:24.549Z,97516.84
2023-01-07T19:13:52.087Z,97515.00
2023-01-07T19:16:19.673Z,97514.41
2023-01-07T19:18:47.310Z,97514.00
2023-01-07T19:21:14.826Z,97510.75
2023-01-07T19:23:42.418Z,97507.50
2023-01-07T19:26:12.218Z,97496.50
2023-01-07T19:28:39.839Z,97497.13
2023-01-07T19:31:08.155Z,97497.72
2023-01-07T19:33:36.804Z,97500.38
2023-01-07T19:36:10.782Z,97500.03
2023-01-07T19:38:40.264Z,97501.63
2023-01-07T19:41:13.166Z,97507.34
2023-01-07T19:43:40.790Z,97504.13
2023-01-07T19:46:09.980Z,97516.13
2023-01-07T19:48:37.817Z,97509.84
2023-01-07T19:51:06.684Z,97520.84
2023-01-07T19:53:35.622Z,97512.50
2023-01-07T19:56:05.917Z,97515.13
2023-01-07T19:58:35.356Z,97514.53
2023-01-07T20:01:08.787Z,97512.91
2023-01-07T20:03:37.319Z,97516.19
2023-01-07T20:06:06.697Z,97527.19
2023-01-07T20:08:34.609Z,97517.63
2023-01-07T20:11:02.331Z,97500.94
2023-01-07T20:13:33.891Z,97514.78
2023-01-07T20:16:09.662Z,97513.97
2023-01-07T20:18:39.108Z,97516.03
2023-01-07T20:21:07.366Z,97507.47
2023-01-07T20:23:36.438Z,97505.84
2023-01-07T20:26:07.408Z,97493.03
2023-01-07T20:28:35.714Z,97494.88
2023-01-07T20:31:09.737Z,97488.19
2023-01-07T20:33:37.727Z,97494.69
2023-01-07T20:36:08.572Z,97489.38
2023-01-07T20:38:36.850Z,97484.31
2023-01-07T20:41:05.896Z,97481.47
2023-01-07T20:43:35.557Z,97480.44
2023-01-07T20:46:06.006Z,97491.22
2023-01-07T20:48:34.559Z,97490.81
2023-01-07T20:51:09.461Z,97483.91
2023-01-07T20:53:37.706Z,97481.66
2023-01-07T20:56:06.142Z,97479.84
2023-01-07T20:58:35.541Z,97479.03
2023-01-07T21:01:05.623Z,97480.25
2023-01-07T21:03:35.259Z,97486.75
2023-01-07T21:06:02.918Z,97471.28
2023-01-07T21:08:30.463Z,97471.06
2023-01-07T21:10:58.076Z,97476.97
2023-01-07T21:13:25.998Z,97472.72
2023-01-07T21:15:54.390Z,97473.94
2023-01-07T21:18:21.874Z,97466.41
2023-01-07T21:20:49.443Z,97461.06
2023-01-07T21:23:16.951Z,97469.84
2023-01-07T21:25:48.336Z,97460.72
2023-01-07T21:28:15.990Z,97448.31
2023-01-07T21:30:43.607Z,97442.22
2023-01-07T21:33:11.295Z,97429.81
2023-01-07T21:35:42.241Z,97424.72
2023-01-07T21:38:09.973Z,97429.59
2023-01-07T21:40:39.521Z,97430.41
2023-01-07T21:43:07.060Z,97426.78
2023-01-07T21:45:34.591Z,97434.09
2023-01-07T21:48:02.367Z,97430.00
2023-01-07T21:50:29.952Z,97426.56
2023-01-07T21:52:57.765Z,97429.81
2023-01-07T21:55:25.217Z,97434.09
2023-01-07T21:57:52.786Z,97431.84
2023-01-07T22:00:20.475Z,97422.72
2023-01-07T22:02:48.060Z,97422.31
2023-01-07T22:05:15.612Z,97417.22
2023-01-07T22:07:43.185Z,97422.31
2023-01-07T22:10:10.854Z,97423.91
2023-01-07T22:12:38.584Z,97429.81
2023-01-07T22:15:06.444Z,97418.63
2023-01-07T22:17:34.014Z,97411.75
2023-01-07T22:20:01.940Z,97417.22
2023-01-07T22:22:29.493Z,97418.63
2023-01-07T22:24:56.944Z,97417.84
2023-01-07T22:27:24.541Z,97412.75
2023-01-07T22:29:51.998Z,97413.97
2023-01-07T22:32:19.654Z,97405.22
2023-01-07T22:34:47.106Z,97413.38
2023-01-07T22:37:19.227Z,97409.69
2023-01-07T22:39:54.084Z,97415.59
2023-01-07T22:42:29.235Z,97402.16
2023-01-07T22:45:02.820Z,97399.75
2023-01-07T22:47:36.062Z,97393.47
2023-01-07T22:50:06.458Z,97401.16
2023-01-07T22:52:35.701Z,97392.22
2023-01-07T22:55:04.132Z,97389.78
2023-01-07T22:57:32.194Z,97388.56
2023-01-07T23:00:00.725Z,97387.56
2023-01-07T23:02:28.655Z,97385.31
2023-01-07T23:04:56.117Z,97385.72
2023-01-07T23:07:23.705Z,97373.94
2023-01-07T23:09:51.719Z,97372.72
2023-01-07T23:12:19.303Z,97364.38
2023-01-07T23:14:46.745Z,97370.28
2023-01-07T23:17:14.545Z,97372.50
2023-01-07T23:19:41.958Z,97372.94
2023-01-07T23:22:09.505Z,97361.53
2023-01-07T23:24:37.455Z,97358.91
2023-01-07T23:27:05.258Z,97356.47
2023-01-07T23:29:32.756Z,97360.13
2023-01-07T23:32:00.341Z,97368.06
2023-01-07T23:34:27.831Z,97359.09
2023-01-07T23:36:55.335Z,97362.38
2023-01-07T23:39:23.156Z,97360.34
2023-01-07T23:41:50.715Z,97355.44
2023-01-07T23:44:18.167Z,97350.56
2023-01-07T23:46:45.877Z,97341.22
2023-01-07T23:49:13.320Z,97336.09
2023-01-07T23:51:41.586Z,97338.72
2023-01-07T23:54:09.918Z,97333.66
2023-01-07T23:56:37.515Z,97330.38
2023-01-07T23:59:04.999Z,97329.00
